Time;durP1;ratioP1;P1;durP2;ratioP2;P2;SDS_P1;SDS_P2;PMS_P1;PMS_P2;Temp;Humidity;BMP_temperature;BMP_pressure;BME280_temperature;BME280_humidity;BME280_pressure;Samples;Min_cycle;Max_cycle;Signal;HPM_P1;HPM_P2
2023/12/10 00:00:25;;;;;;;0.47;0.47;;;3.90;99.90;;;;;;4429278;32;20057;-61
2023/12/10 00:02:50;;;;;;;0.60;0.60;;;3.90;99.90;;;;;;4427882;32;20074;-60
2023/12/10 00:05:16;;;;;;;12.30;2.25;;;3.90;99.90;;;;;;4428074;32;20083;-60
2023/12/10 00:07:41;;;;;;;0.40;0.40;;;3.90;99.90;;;;;;4427414;32;20077;-59
2023/12/10 00:10:07;;;;;;;0.40;0.40;;;3.90;99.90;;;;;;4429646;32;20561;-61
2023/12/10 00:12:33;;;;;;;0.50;0.50;;;3.90;99.90;;;;;;4427265;32;20080;-60
2023/12/10 00:14:58;;;;;;;7.00;1.00;;;4.00;99.90;;;;;;4426229;32;20073;-59
2023/12/10 00:17:24;;;;;;;0.30;0.30;;;4.00;99.90;;;;;;4429199;32;20101;-60
2023/12/10 00:19:50;;;;;;;0.73;0.73;;;3.90;99.90;;;;;;4432614;32;20439;-61
2023/12/10 00:22:15;;;;;;;0.35;0.35;;;3.90;99.90;;;;;;4431232;32;20065;-60
2023/12/10 00:24:42;;;;;;;0.30;0.30;;;3.80;99.90;;;;;;4432389;32;20061;-60
2023/12/10 00:27:08;;;;;;;0.40;0.40;;;3.80;99.90;;;;;;4430502;32;20076;-60
2023/12/10 00:29:34;;;;;;;0.70;0.70;;;3.80;99.90;;;;;;4430976;32;20077;-60
2023/12/10 00:31:59;;;;;;;0.52;0.52;;;3.80;99.90;;;;;;4414964;32;20097;-60
2023/12/10 00:34:25;;;;;;;0.30;0.30;;;3.80;99.90;;;;;;4423340;32;20090;-61
2023/12/10 00:36:50;;;;;;;3.67;1.25;;;3.80;99.90;;;;;;4427348;32;20558;-61
2023/12/10 00:39:16;;;;;;;0.60;0.60;;;3.70;99.90;;;;;;4429532;32;20127;-61
2023/12/10 00:41:42;;;;;;;0.30;0.30;;;3.70;99.90;;;;;;4431484;32;20427;-60
2023/12/10 00:44:08;;;;;;;0.40;0.40;;;3.70;99.90;;;;;;4429047;32;20077;-59
2023/12/10 00:46:33;;;;;;;0.75;0.75;;;3.70;99.90;;;;;;4414534;32;21142;-61
2023/12/10 00:48:59;;;;;;;0.30;0.30;;;3.80;99.90;;;;;;4430024;32;20080;-60
2023/12/10 00:51:24;;;;;;;0.47;0.47;;;3.70;99.90;;;;;;4430435;32;20082;-61
2023/12/10 00:53:50;;;;;;;11.20;0.50;;;3.60;99.90;;;;;;4434733;32;20422;-61
2023/12/10 00:56:16;;;;;;;0.82;0.82;;;3.60;99.90;;;;;;4418111;32;20086;-61
2023/12/10 00:58:42;;;;;;;0.75;0.75;;;3.60;99.90;;;;;;4407387;32;20062;-60
2023/12/10 01:01:07;;;;;;;0.90;0.68;;;3.60;99.90;;;;;;4417529;32;20065;-61
2023/12/10 01:03:33;;;;;;;1.75;1.37;;;3.70;99.90;;;;;;4431820;32;20061;-60
2023/12/10 01:05:59;;;;;;;0.88;0.88;;;3.70;99.90;;;;;;4434712;32;20124;-60
2023/12/10 01:08:24;;;;;;;0.47;0.47;;;3.70;99.90;;;;;;4429722;32;20077;-60
2023/12/10 01:10:50;;;;;;;0.60;0.60;;;3.70;99.90;;;;;;4430196;32;20084;-61
2023/12/10 01:13:15;;;;;;;0.30;0.30;;;3.70;99.90;;;;;;4427985;32;20084;-60
2023/12/10 01:15:41;;;;;;;0.40;0.40;;;3.70;99.90;;;;;;4434061;32;20140;-61
2023/12/10 01:18:07;;;;;;;0.50;0.50;;;3.80;99.90;;;;;;4429659;32;20431;-61
2023/12/10 01:20:33;;;;;;;0.40;0.40;;;3.70;99.90;;;;;;4432602;32;20172;-58
2023/12/10 01:23:00;;;;;;;0.82;0.60;;;3.80;99.90;;;;;;4421523;32;20061;-61
2023/12/10 01:25:26;;;;;;;0.65;0.65;;;3.80;99.90;;;;;;4418916;32;20119;-61
2023/12/10 01:27:53;;;;;;;2.83;0.98;;;3.80;99.90;;;;;;4430042;32;20070;-60
2023/12/10 01:30:23;;;;;;;0.30;0.30;;;3.70;99.90;;;;;;4429355;32;20061;-60
2023/12/10 01:32:51;;;;;;;0.50;0.50;;;3.70;99.90;;;;;;4417718;32;20111;-60
2023/12/10 01:35:17;;;;;;;0.40;0.40;;;3.80;99.90;;;;;;4430376;32;20069;-61
2023/12/10 01:37:43;;;;;;;1.35;0.80;;;3.80;99.90;;;;;;4433819;32;20447;-61
2023/12/10 01:40:08;;;;;;;0.40;0.40;;;3.70;99.90;;;;;;4432116;32;20068;-59
2023/12/10 01:42:35;;;;;;;0.50;0.50;;;3.70;99.90;;;;;;4429229;32;20065;-60
2023/12/10 01:45:00;;;;;;;0.40;0.40;;;3.70;99.90;;;;;;4429836;32;20120;-59
2023/12/10 01:47:28;;;;;;;1.23;1.12;;;3.70;99.90;;;;;;4431207;32;20073;-60
2023/12/10 01:49:54;;;;;;;0.60;0.60;;;3.70;99.90;;;;;;4431764;32;20069;-61
2023/12/10 01:52:22;;;;;;;0.30;0.30;;;3.60;99.90;;;;;;4433140;32;20508;-61
2023/12/10 01:54:47;;;;;;;0.68;0.68;;;3.70;99.90;;;;;;4428315;32;20760;-61
2023/12/10 01:57:13;;;;;;;0.60;0.60;;;3.70;99.90;;;;;;4432422;32;20066;-60
2023/12/10 01:59:38;;;;;;;0.50;0.50;;;3.70;99.90;;;;;;4414887;32;20172;-59
2023/12/10 02:02:05;;;;;;;0.30;0.30;;;3.60;99.90;;;;;;4431387;32;20072;-61
2023/12/10 02:04:31;;;;;;;0.40;0.40;;;3.60;99.90;;;;;;4429188;32;20073;-61
2023/12/10 02:06:56;;;;;;;0.35;0.35;;;3.70;99.90;;;;;;4430440;32;20061;-60
2023/12/10 02:09:22;;;;;;;5.10;1.20;;;3.60;99.90;;;;;;4433963;32;20086;-60
2023/12/10 02:11:47;;;;;;;0.40;0.40;;;3.60;99.90;;;;;;4428699;32;20116;-60
2023/12/10 02:14:13;;;;;;;1.08;0.93;;;3.60;99.90;;;;;;4428540;32;20085;-60
2023/12/10 02:16:38;;;;;;;0.35;0.35;;;3.60;99.90;;;;;;4430979;32;20512;-60
2023/12/10 02:19:04;;;;;;;0.30;0.30;;;3.50;99.90;;;;;;4427353;32;20076;-61
2023/12/10 02:21:31;;;;;;;0.57;0.57;;;3.50;99.90;;;;;;4431238;32;20065;-61
2023/12/10 02:24:10;;;;;;;0.50;0.50;;;3.40;99.90;;;;;;4428562;32;20085;-60
2023/12/10 02:26:36;;;;;;;0.43;0.43;;;3.40;99.90;;;;;;4429614;32;20069;-60
2023/12/10 02:29:03;;;;;;;0.62;0.62;;;3.40;99.90;;;;;;4431998;32;20560;-61
2023/12/10 02:31:29;;;;;;;1.00;0.77;;;3.30;99.90;;;;;;4429953;32;20112;-61
2023/12/10 02:33:54;;;;;;;0.52;0.52;;;3.40;99.90;;;;;;4428019;32;20847;-60
2023/12/10 02:36:20;;;;;;;0.40;0.40;;;3.40;99.90;;;;;;4428488;32;20134;-60
2023/12/10 02:38:47;;;;;;;0.37;0.37;;;3.40;99.90;;;;;;4434315;32;20163;-61
2023/12/10 02:41:13;;;;;;;0.73;0.73;;;3.40;99.90;;;;;;4428925;32;20094;-61
2023/12/10 02:43:38;;;;;;;0.57;0.55;;;3.40;99.90;;;;;;4425473;32;20060;-60
2023/12/10 02:46:04;;;;;;;0.52;0.52;;;3.40;99.90;;;;;;4427668;32;20094;-59
2023/12/10 02:48:29;;;;;;;0.85;0.85;;;3.40;99.90;;;;;;4435546;32;20466;-60
2023/12/10 02:50:55;;;;;;;0.40;0.40;;;3.30;99.90;;;;;;4429459;32;20072;-61
2023/12/10 02:53:21;;;;;;;0.70;0.70;;;3.30;99.90;;;;;;4428682;32;20065;-60
2023/12/10 02:55:46;;;;;;;0.82;0.82;;;3.30;99.90;;;;;;4429713;32;20563;-58
2023/12/10 02:58:12;;;;;;;1.58;0.98;;;3.30;99.90;;;;;;4426534;32;20073;-61
2023/12/10 03:00:37;;;;;;;2.10;1.15;;;3.30;99.90;;;;;;4415037;32;20120;-60
2023/12/10 03:03:03;;;;;;;0.73;0.70;;;3.30;99.90;;;;;;4431976;32;20431;-60
2023/12/10 03:05:28;;;;;;;0.50;0.50;;;3.30;99.90;;;;;;4430552;32;20123;-60
2023/12/10 03:07:54;;;;;;;0.50;0.50;;;3.30;99.90;;;;;;4428276;32;20497;-60
2023/12/10 03:10:20;;;;;;;0.73;0.73;;;3.20;99.90;;;;;;4426994;32;20429;-60
2023/12/10 03:12:46;;;;;;;0.40;0.40;;;3.30;99.90;;;;;;4415704;32;20073;-61
2023/12/10 03:15:11;;;;;;;0.52;0.52;;;3.30;99.90;;;;;;4414845;32;20463;-60
2023/12/10 03:17:37;;;;;;;0.40;0.40;;;3.30;99.90;;;;;;4428051;32;20081;-61
2023/12/10 03:20:03;;;;;;;1.35;0.73;;;3.30;99.90;;;;;;4429774;32;20593;-61
2023/12/10 03:22:29;;;;;;;0.47;0.47;;;3.30;99.90;;;;;;4416724;32;21227;-61
2023/12/10 03:24:54;;;;;;;0.37;0.37;;;3.20;99.90;;;;;;4430279;32;20058;-60
2023/12/10 03:27:20;;;;;;;0.50;0.50;;;3.30;99.90;;;;;;4427278;32;20081;-60
2023/12/10 03:29:46;;;;;;;0.40;0.40;;;3.30;99.90;;;;;;4427843;32;20093;-61
2023/12/10 03:32:11;;;;;;;0.98;0.88;;;3.30;99.90;;;;;;4428131;32;20417;-60
2023/12/10 03:34:37;;;;;;;0.40;0.40;;;3.30;99.90;;;;;;4430005;32;20069;-60
2023/12/10 03:37:02;;;;;;;0.52;0.52;;;3.20;99.90;;;;;;4429145;32;20084;-61
2023/12/10 03:39:28;;;;;;;1.08;0.77;;;3.20;99.90;;;;;;4424583;32;20082;-59
2023/12/10 03:41:53;;;;;;;0.98;0.88;;;3.30;99.90;;;;;;4432330;32;20084;-60
2023/12/10 03:44:19;;;;;;;5.62;0.98;;;3.30;99.90;;;;;;4427777;32;20077;-58
2023/12/10 03:46:44;;;;;;;0.60;0.60;;;3.20;99.90;;;;;;4431498;32;20381;-60
2023/12/10 03:49:10;;;;;;;0.73;0.73;;;3.30;99.90;;;;;;4428590;32;20070;-60
2023/12/10 03:51:35;;;;;;;0.82;0.82;;;3.20;99.90;;;;;;4427712;32;20481;-59
2023/12/10 03:54:01;;;;;;;0.40;0.40;;;3.20;99.90;;;;;;4430577;32;20065;-60
2023/12/10 03:56:27;;;;;;;0.40;0.40;;;3.10;99.90;;;;;;4414710;32;20156;-60
2023/12/10 03:58:52;;;;;;;1.15;0.82;;;3.10;99.90;;;;;;4431127;32;20073;-59
2023/12/10 04:01:18;;;;;;;1.37;0.95;;;3.10;99.90;;;;;;4431579;32;20120;-59
2023/12/10 04:03:43;;;;;;;0.30;0.30;;;3.10;99.90;;;;;;4428236;32;20081;-59
2023/12/10 04:06:09;;;;;;;0.45;0.45;;;3.20;99.90;;;;;;4432352;32;20065;-59
2023/12/10 04:08:34;;;;;;;0.70;0.70;;;3.20;99.90;;;;;;4427343;32;20073;-60
2023/12/10 04:11:00;;;;;;;0.35;0.35;;;3.20;99.90;;;;;;4428749;32;20513;-60
2023/12/10 04:13:25;;;;;;;0.40;0.40;;;3.10;99.90;;;;;;4427675;32;20073;-59
2023/12/10 04:15:51;;;;;;;0.60;0.60;;;3.20;99.90;;;;;;4430181;32;20097;-59
2023/12/10 04:18:16;;;;;;;0.40;0.40;;;3.30;99.90;;;;;;4427895;32;20084;-59
2023/12/10 04:20:43;;;;;;;0.32;0.32;;;3.20;99.90;;;;;;4410202;32;20069;-59
2023/12/10 04:23:08;;;;;;;1.75;1.58;;;3.20;99.90;;;;;;4415793;32;20080;-60
2023/12/10 04:25:34;;;;;;;0.43;0.43;;;3.20;99.90;;;;;;4427078;32;20100;-60
2023/12/10 04:27:59;;;;;;;0.50;0.50;;;3.20;99.90;;;;;;4427898;32;20061;-60
2023/12/10 04:30:26;;;;;;;0.40;0.40;;;3.20;99.90;;;;;;4417861;32;20077;-59
2023/12/10 04:32:52;;;;;;;0.40;0.40;;;3.20;99.90;;;;;;4431546;32;20412;-60
2023/12/10 04:35:18;;;;;;;0.60;0.60;;;3.10;99.90;;;;;;4431206;32;20494;-59
2023/12/10 04:37:43;;;;;;;0.30;0.30;;;3.10;99.90;;;;;;4430733;32;20132;-59
2023/12/10 04:40:10;;;;;;;0.50;0.50;;;3.20;99.90;;;;;;4425593;32;20434;-58
2023/12/10 04:42:36;;;;;;;0.45;0.45;;;3.20;99.90;;;;;;4428478;32;20096;-59
2023/12/10 04:45:02;;;;;;;0.70;0.52;;;3.30;99.90;;;;;;4427001;32;20065;-59
2023/12/10 04:47:27;;;;;;;0.40;0.40;;;3.20;99.90;;;;;;4427224;32;20753;-59
2023/12/10 04:49:54;;;;;;;0.40;0.40;;;3.30;99.90;;;;;;4430359;32;20082;-60
2023/12/10 04:52:19;;;;;;;0.60;0.60;;;3.20;99.90;;;;;;4429132;32;20119;-59
2023/12/10 04:54:45;;;;;;;1.33;1.25;;;3.20;99.90;;;;;;4428369;32;20085;-60
2023/12/10 04:57:10;;;;;;;0.40;0.40;;;3.30;99.90;;;;;;4429736;32;20089;-60
2023/12/10 04:59:36;;;;;;;0.30;0.30;;;3.20;99.90;;;;;;4430654;32;20553;-60
2023/12/10 05:02:01;;;;;;;0.40;0.40;;;3.30;99.90;;;;;;4428072;32;20089;-60
2023/12/10 05:04:27;;;;;;;0.32;0.32;;;3.30;99.90;;;;;;4432148;32;20069;-60
2023/12/10 05:06:52;;;;;;;0.30;0.30;;;3.30;99.90;;;;;;4431903;32;20065;-61
2023/12/10 05:09:18;;;;;;;0.40;0.40;;;3.30;99.90;;;;;;4432644;32;20567;-60
2023/12/10 05:11:43;;;;;;;0.40;0.40;;;3.40;99.90;;;;;;4428789;32;20065;-61
2023/12/10 05:14:08;;;;;;;0.68;0.68;;;3.40;99.90;;;;;;4428543;32;20074;-59
2023/12/10 05:16:34;;;;;;;1.25;0.80;;;3.30;99.90;;;;;;4432910;32;20119;-60
2023/12/10 05:18:59;;;;;;;0.40;0.40;;;3.30;99.90;;;;;;4431689;32;20061;-60
2023/12/10 05:21:25;;;;;;;0.43;0.43;;;3.40;99.90;;;;;;4416413;32;20092;-59
2023/12/10 05:23:51;;;;;;;0.40;0.40;;;3.40;99.90;;;;;;4429393;32;20600;-61
2023/12/10 05:26:16;;;;;;;0.30;0.30;;;3.40;99.90;;;;;;4429998;32;20062;-60
2023/12/10 05:28:41;;;;;;;1.15;1.05;;;3.40;99.90;;;;;;4433824;32;20085;-61
2023/12/10 05:31:07;;;;;;;0.32;0.32;;;3.30;99.90;;;;;;4430535;32;20074;-57
2023/12/10 05:33:33;;;;;;;0.50;0.50;;;3.40;99.90;;;;;;4433727;32;20073;-60
2023/12/10 05:35:59;;;;;;;0.40;0.40;;;3.40;99.90;;;;;;4430597;32;20082;-60
2023/12/10 05:38:25;;;;;;;0.60;0.60;;;3.40;99.90;;;;;;4430364;32;20096;-60
2023/12/10 05:40:50;;;;;;;0.50;0.50;;;3.60;99.90;;;;;;4431139;32;20206;-60
2023/12/10 05:43:16;;;;;;;0.40;0.40;;;3.70;99.90;;;;;;4427516;32;20126;-60
2023/12/10 05:45:41;;;;;;;0.52;0.52;;;3.60;99.90;;;;;;4430660;32;20142;-60
2023/12/10 05:48:07;;;;;;;1.50;1.37;;;3.70;99.90;;;;;;4432097;32;20097;-59
2023/12/10 05:50:32;;;;;;;0.40;0.40;;;3.60;99.90;;;;;;4431298;32;20470;-61
2023/12/10 05:52:58;;;;;;;0.62;0.60;;;3.70;99.90;;;;;;4429341;32;20494;-61
2023/12/10 05:55:23;;;;;;;0.45;0.45;;;3.80;99.90;;;;;;4433933;32;20078;-61
2023/12/10 05:57:49;;;;;;;0.45;0.45;;;3.80;99.90;;;;;;4430136;32;20072;-61
2023/12/10 06:00:14;;;;;;;0.62;0.62;;;3.80;99.90;;;;;;4429466;32;20080;-61
2023/12/10 06:02:40;;;;;;;0.98;0.95;;;3.70;99.90;;;;;;4429936;32;20784;-60
2023/12/10 06:05:05;;;;;;;0.60;0.60;;;3.70;99.90;;;;;;4432234;32;20082;-60
2023/12/10 06:07:31;;;;;;;0.55;0.55;;;3.70;99.90;;;;;;4428851;32;20072;-59
2023/12/10 06:09:56;;;;;;;0.77;0.77;;;3.70;99.90;;;;;;4434294;32;20086;-60
2023/12/10 06:12:22;;;;;;;1.17;1.10;;;3.70;99.90;;;;;;4430060;32;20066;-61
2023/12/10 06:14:47;;;;;;;0.40;0.40;;;3.70;99.90;;;;;;4429664;32;20077;-60
2023/12/10 06:17:13;;;;;;;0.47;0.47;;;3.50;99.90;;;;;;4434028;32;20505;-59
2023/12/10 06:19:38;;;;;;;0.88;0.85;;;3.50;99.90;;;;;;4430376;32;20088;-60
2023/12/10 06:22:04;;;;;;;0.30;0.30;;;3.60;99.90;;;;;;4430705;32;20674;-61
2023/12/10 06:24:29;;;;;;;0.50;0.50;;;3.60;99.90;;;;;;4431242;32;20064;-60
2023/12/10 06:26:55;;;;;;;0.45;0.45;;;3.70;99.90;;;;;;4431045;32;20085;-62
2023/12/10 06:29:22;;;;;;;0.32;0.32;;;3.60;99.90;;;;;;4427502;32;20082;-61
2023/12/10 06:31:47;;;;;;;0.32;0.32;;;3.60;99.90;;;;;;4411096;32;20301;-59
2023/12/10 06:34:13;;;;;;;1.20;0.80;;;3.70;99.90;;;;;;4428718;32;20073;-60
2023/12/10 06:36:39;;;;;;;0.50;0.50;;;3.60;99.90;;;;;;4427048;32;20077;-60
2023/12/10 06:39:04;;;;;;;0.35;0.35;;;3.70;99.90;;;;;;4431094;32;20136;-60
2023/12/10 06:41:30;;;;;;;1.10;0.98;;;3.80;99.90;;;;;;4428207;32;20089;-60
2023/12/10 06:43:55;;;;;;;0.77;0.77;;;3.90;99.90;;;;;;4431819;32;20093;-60
2023/12/10 06:46:21;;;;;;;2.75;1.02;;;4.00;99.90;;;;;;4425702;32;20118;-60
2023/12/10 06:48:47;;;;;;;0.40;0.40;;;4.00;99.90;;;;;;4429845;32;20805;-60
2023/12/10 06:51:12;;;;;;;0.30;0.30;;;3.80;99.90;;;;;;4427794;32;20427;-59
2023/12/10 06:53:40;;;;;;;0.40;0.40;;;3.80;99.90;;;;;;4416776;32;20105;-60
2023/12/10 06:56:06;;;;;;;0.37;0.37;;;3.90;99.90;;;;;;4431530;32;20525;-60
2023/12/10 06:58:32;;;;;;;0.50;0.50;;;4.00;99.90;;;;;;4431273;32;20754;-61
2023/12/10 07:00:57;;;;;;;1.52;1.17;;;4.10;99.90;;;;;;4424297;32;20093;-62
2023/12/10 07:03:23;;;;;;;0.30;0.30;;;4.10;99.90;;;;;;4434496;32;20069;-61
2023/12/10 07:05:48;;;;;;;0.60;0.60;;;4.20;99.90;;;;;;4437397;32;20132;-61
2023/12/10 07:08:14;;;;;;;0.35;0.35;;;4.00;99.90;;;;;;4437808;32;20516;-61
2023/12/10 07:10:39;;;;;;;0.28;0.28;;;3.90;99.90;;;;;;4436206;32;20126;-59
2023/12/10 07:13:05;;;;;;;0.47;0.47;;;3.80;99.90;;;;;;4437063;32;20097;-60
2023/12/10 07:15:30;;;;;;;0.77;0.77;;;3.80;99.90;;;;;;4431156;32;20734;-60
2023/12/10 07:17:56;;;;;;;0.40;0.40;;;3.60;99.90;;;;;;4427883;32;20182;-62
2023/12/10 07:20:21;;;;;;;0.40;0.40;;;3.80;99.90;;;;;;4431498;32;20319;-60
2023/12/10 07:22:47;;;;;;;0.75;0.75;;;4.00;99.90;;;;;;4430786;32;20077;-61
2023/12/10 07:25:12;;;;;;;1.75;1.27;;;4.10;99.90;;;;;;4422935;32;20089;-61
2023/12/10 07:27:38;;;;;;;0.45;0.45;;;4.30;99.90;;;;;;4428324;32;20077;-61
2023/12/10 07:30:04;;;;;;;0.50;0.50;;;4.40;99.90;;;;;;4429646;32;20387;-60
2023/12/10 07:32:29;;;;;;;0.35;0.35;;;4.40;99.90;;;;;;4428369;32;20648;-61
2023/12/10 07:34:55;;;;;;;0.52;0.52;;;4.40;99.90;;;;;;4426647;32;20085;-61
2023/12/10 07:37:21;;;;;;;0.70;0.70;;;4.50;99.90;;;;;;4429709;32;20164;-61
2023/12/10 07:39:46;;;;;;;0.30;0.30;;;4.60;99.90;;;;;;4430526;32;20073;-61
2023/12/10 07:42:12;;;;;;;0.30;0.30;;;4.50;99.90;;;;;;4431096;32;20575;-62
2023/12/10 07:44:37;;;;;;;15.55;2.28;;;4.60;99.90;;;;;;4428209;32;20132;-60
2023/12/10 07:47:03;;;;;;;1.02;0.98;;;4.70;99.90;;;;;;4429185;32;20402;-59
2023/12/10 07:49:28;;;;;;;3.60;1.27;;;4.70;99.90;;;;;;4428655;32;20072;-60
2023/12/10 07:51:54;;;;;;;0.90;0.90;;;4.70;99.90;;;;;;4430858;32;20077;-60
2023/12/10 07:54:20;;;;;;;0.40;0.40;;;4.80;99.90;;;;;;4414616;32;20077;-61
2023/12/10 07:56:45;;;;;;;0.65;0.50;;;4.80;99.90;;;;;;4427231;32;20097;-60
2023/12/10 07:59:12;;;;;;;0.35;0.35;;;4.80;99.90;;;;;;4427958;32;20058;-61
2023/12/10 08:01:37;;;;;;;0.40;0.40;;;4.80;99.90;;;;;;4428343;32;20556;-61
2023/12/10 08:04:03;;;;;;;2.45;0.47;;;4.90;99.90;;;;;;4430417;32;20084;-60
2023/12/10 08:06:30;;;;;;;8.25;0.98;;;4.90;99.90;;;;;;4428693;32;20062;-61
2023/12/10 08:08:55;;;;;;;0.30;0.30;;;5.00;99.90;;;;;;4425242;32;20305;-59
2023/12/10 08:11:21;;;;;;;0.37;0.37;;;5.10;99.90;;;;;;4430081;32;20151;-60
2023/12/10 08:13:47;;;;;;;1.40;0.90;;;5.20;99.90;;;;;;4429716;32;20093;-61
2023/12/10 08:16:13;;;;;;;0.50;0.50;;;5.20;99.90;;;;;;4430025;32;20236;-61
2023/12/10 08:18:38;;;;;;;1.48;0.88;;;5.20;99.90;;;;;;4428222;32;20144;-61
2023/12/10 08:21:04;;;;;;;1.15;0.60;;;5.30;99.90;;;;;;4432719;32;20099;-59
2023/12/10 08:23:29;;;;;;;0.82;0.82;;;5.40;99.90;;;;;;4426987;32;20492;-61
2023/12/10 08:25:55;;;;;;;0.40;0.40;;;5.50;99.90;;;;;;4431659;32;20101;-59
2023/12/10 08:28:20;;;;;;;0.30;0.30;;;5.60;99.90;;;;;;4429873;32;20390;-60
2023/12/10 08:30:46;;;;;;;0.30;0.30;;;5.60;99.90;;;;;;4430686;32;20065;-60
2023/12/10 08:33:11;;;;;;;1.37;1.00;;;5.70;99.90;;;;;;4426994;32;20081;-61
2023/12/10 08:35:37;;;;;;;1.27;1.00;;;5.80;99.90;;;;;;4426660;32;20121;-60
2023/12/10 08:38:02;;;;;;;2.45;0.88;;;5.90;99.90;;;;;;4430053;32;21623;-61
2023/12/10 08:40:28;;;;;;;0.57;0.57;;;6.00;99.90;;;;;;4428217;32;20132;-59
2023/12/10 08:42:53;;;;;;;12.37;2.80;;;6.10;99.90;;;;;;4428975;32;20085;-59
2023/12/10 08:45:19;;;;;;;0.70;0.70;;;6.10;99.90;;;;;;4430227;32;20065;-59
2023/12/10 08:47:44;;;;;;;0.50;0.50;;;6.10;99.90;;;;;;4429671;32;20089;-60
2023/12/10 08:50:10;;;;;;;0.43;0.43;;;6.20;99.90;;;;;;4429172;32;20089;-61
2023/12/10 08:52:35;;;;;;;0.57;0.57;;;6.20;99.90;;;;;;4428578;32;20093;-60
2023/12/10 08:55:01;;;;;;;0.52;0.52;;;6.30;99.90;;;;;;4431974;32;20065;-60
2023/12/10 08:57:27;;;;;;;0.30;0.30;;;6.40;99.90;;;;;;4431694;32;20073;-61
2023/12/10 08:59:52;;;;;;;0.98;0.77;;;6.50;99.90;;;;;;4432185;32;20532;-61
2023/12/10 09:02:19;;;;;;;1.23;0.82;;;6.60;99.90;;;;;;4424569;32;20155;-59
2023/12/10 09:04:44;;;;;;;0.37;0.37;;;6.60;99.90;;;;;;4431120;32;20111;-60
2023/12/10 09:07:10;;;;;;;0.95;0.55;;;6.70;99.90;;;;;;4429591;32;20639;-60
2023/12/10 09:09:36;;;;;;;2.12;0.95;;;6.70;99.90;;;;;;4432589;32;20077;-60
2023/12/10 09:12:01;;;;;;;0.55;0.55;;;6.80;99.90;;;;;;4430260;32;20513;-59
2023/12/10 09:14:27;;;;;;;0.20;0.20;;;6.90;99.90;;;;;;4431904;32;20553;-60
2023/12/10 09:16:55;;;;;;;6.82;1.42;;;7.00;99.90;;;;;;4431267;32;20512;-60
2023/12/10 09:19:21;;;;;;;3.62;1.75;;;7.00;99.90;;;;;;4430234;32;20556;-61
2023/12/10 09:21:47;;;;;;;1.55;1.23;;;7.10;99.90;;;;;;4432910;32;20218;-60
2023/12/10 09:24:12;;;;;;;0.70;0.70;;;7.20;99.90;;;;;;4431163;32;20122;-60
2023/12/10 09:26:38;;;;;;;0.20;0.20;;;7.20;99.90;;;;;;4430831;32;20481;-60
2023/12/10 09:29:04;;;;;;;0.40;0.40;;;7.20;99.90;;;;;;4430061;32;20086;-59
2023/12/10 09:31:29;;;;;;;1.95;1.25;;;7.20;99.90;;;;;;4429403;32;20064;-59
2023/12/10 09:33:55;;;;;;;0.60;0.60;;;7.30;99.90;;;;;;4428464;32;21274;-60
2023/12/10 09:36:20;;;;;;;2.08;1.02;;;7.30;99.90;;;;;;4431016;32;20093;-61
2023/12/10 09:38:46;;;;;;;0.30;0.30;;;7.30;99.90;;;;;;4427972;32;20074;-61
2023/12/10 09:41:11;;;;;;;0.90;0.62;;;7.20;99.90;;;;;;4429808;32;20544;-60
2023/12/10 09:43:37;;;;;;;0.93;0.93;;;7.30;99.90;;;;;;4431484;32;20090;-61
2023/12/10 09:46:03;;;;;;;0.93;0.90;;;7.30;99.90;;;;;;4431947;32;20422;-61
2023/12/10 09:48:30;;;;;;;4.62;1.60;;;7.30;99.90;;;;;;4428349;32;20077;-61
2023/12/10 09:50:56;;;;;;;0.30;0.30;;;7.30;99.90;;;;;;4430480;32;20519;-61
2023/12/10 09:53:21;;;;;;;0.40;0.40;;;7.40;99.90;;;;;;4419923;32;20134;-61
2023/12/10 09:55:48;;;;;;;0.70;0.70;;;7.40;99.90;;;;;;4429990;32;20128;-61
2023/12/10 09:58:14;;;;;;;22.37;1.25;;;7.40;99.90;;;;;;4400465;32;20412;-61
2023/12/10 10:00:40;;;;;;;3.17;0.77;;;7.50;99.90;;;;;;4432586;32;20068;-61
2023/12/10 10:03:06;;;;;;;0.50;0.50;;;7.50;99.90;;;;;;4430913;32;20061;-60
2023/12/10 10:05:33;;;;;;;4.03;1.15;;;7.50;99.90;;;;;;4416593;32;20085;-60
2023/12/10 10:07:58;;;;;;;0.65;0.65;;;7.50;99.90;;;;;;4429873;32;20122;-60
2023/12/10 10:10:25;;;;;;;1.17;1.08;;;7.60;99.90;;;;;;4431294;32;20964;-59
2023/12/10 10:12:52;;;;;;;0.80;0.80;;;7.60;99.90;;;;;;4428250;32;20533;-59
2023/12/10 10:15:26;;;;;;;1.60;0.88;;;7.50;99.90;;;;;;4430194;32;20089;-59
2023/12/10 10:17:52;;;;;;;0.57;0.57;;;7.50;99.90;;;;;;4430177;32;20077;-61
2023/12/10 10:20:18;;;;;;;0.52;0.52;;;7.50;99.90;;;;;;4429442;32;20409;-60
2023/12/10 10:22:45;;;;;;;0.82;0.77;;;7.50;99.90;;;;;;4428751;32;20077;-60
2023/12/10 10:25:11;;;;;;;0.30;0.30;;;7.50;99.90;;;;;;4430908;32;20454;-61
2023/12/10 10:27:38;;;;;;;0.62;0.62;;;7.50;99.90;;;;;;4430622;32;20060;-61
2023/12/10 10:30:04;;;;;;;0.40;0.40;;;7.50;99.90;;;;;;4428308;32;20084;-60
2023/12/10 10:32:30;;;;;;;1.08;1.00;;;7.50;99.90;;;;;;4430205;32;20081;-61
2023/12/10 10:34:56;;;;;;;3.17;1.20;;;7.50;99.90;;;;;;4430107;32;20136;-61
2023/12/10 10:37:21;;;;;;;1.30;1.00;;;7.50;99.90;;;;;;4411231;32;20057;-61
2023/12/10 10:39:49;;;;;;;0.50;0.50;;;7.60;99.90;;;;;;4429549;32;20532;-61
2023/12/10 10:42:18;;;;;;;30.42;0.93;;;7.60;99.90;;;;;;4429275;32;20073;-61
2023/12/10 10:44:43;;;;;;;0.30;0.30;;;7.50;99.90;;;;;;4426289;32;20069;-62
2023/12/10 10:47:09;;;;;;;4.37;1.55;;;7.50;99.90;;;;;;4427287;32;20065;-61
2023/12/10 10:49:41;;;;;;;2.47;0.88;;;7.50;99.90;;;;;;4429496;32;20119;-61
2023/12/10 10:52:11;;;;;;;0.50;0.50;;;7.50;99.90;;;;;;4430195;32;20144;-60
2023/12/10 10:54:37;;;;;;;0.30;0.30;;;7.50;99.90;;;;;;4423182;32;20571;-60
2023/12/10 10:57:03;;;;;;;0.50;0.50;;;7.50;99.90;;;;;;4431850;32;20073;-62
2023/12/10 10:59:30;;;;;;;0.85;0.85;;;7.50;99.90;;;;;;4430356;32;20053;-59
2023/12/10 11:01:59;;;;;;;0.30;0.30;;;7.50;99.90;;;;;;4413525;32;20094;-61
2023/12/10 11:04:24;;;;;;;5.72;1.20;;;7.50;99.90;;;;;;4431923;32;20064;-61
2023/12/10 11:06:51;;;;;;;0.40;0.40;;;7.50;99.90;;;;;;4429901;32;20114;-61
2023/12/10 11:09:17;;;;;;;7.03;1.15;;;7.50;99.90;;;;;;4414565;32;20120;-61
2023/12/10 11:11:42;;;;;;;0.73;0.73;;;7.50;99.90;;;;;;4420432;32;20544;-60
2023/12/10 11:14:19;;;;;;;1.25;0.80;;;7.50;99.90;;;;;;4431222;32;20069;-61
2023/12/10 11:16:48;;;;;;;0.50;0.50;;;7.50;99.90;;;;;;4427550;32;20077;-62
2023/12/10 11:19:15;;;;;;;1.87;0.68;;;7.50;99.90;;;;;;4427818;32;20056;-61
2023/12/10 11:21:40;;;;;;;9.43;1.05;;;7.40;99.90;;;;;;4415556;32;20069;-60
2023/12/10 11:24:06;;;;;;;0.80;0.70;;;7.50;99.90;;;;;;4431724;32;20120;-61
2023/12/10 11:26:31;;;;;;;0.28;0.28;;;7.50;99.90;;;;;;4431826;32;20085;-61
2023/12/10 11:28:57;;;;;;;2.12;1.55;;;7.40;99.90;;;;;;4429664;32;20073;-60
2023/12/10 11:31:23;;;;;;;2.37;1.17;;;7.50;99.90;;;;;;4428839;32;20081;-61
2023/12/10 11:33:49;;;;;;;0.25;0.25;;;7.50;99.90;;;;;;4429814;32;20061;-61
2023/12/10 11:36:15;;;;;;;0.70;0.70;;;7.50;99.90;;;;;;4415500;32;20546;-59
2023/12/10 11:38:45;;;;;;;3.72;0.95;;;7.60;99.90;;;;;;4428282;32;20081;-61
2023/12/10 11:41:10;;;;;;;0.30;0.30;;;7.60;99.90;;;;;;4431241;32;20065;-61
2023/12/10 11:43:37;;;;;;;0.30;0.30;;;7.50;99.90;;;;;;4428315;32;20094;-60
2023/12/10 11:46:04;;;;;;;0.57;0.43;;;7.50;99.90;;;;;;4427944;32;20088;-59
2023/12/10 11:48:30;;;;;;;0.43;0.43;;;7.50;99.90;;;;;;4428523;32;20070;-60
2023/12/10 11:50:56;;;;;;;0.30;0.30;;;7.50;99.90;;;;;;4427383;32;81716;-58
2023/12/10 11:53:21;;;;;;;0.85;0.85;;;7.60;99.90;;;;;;4428488;32;20054;-60
2023/12/10 11:55:48;;;;;;;2.87;1.08;;;7.70;99.90;;;;;;4414912;32;20050;-60
2023/12/10 11:58:13;;;;;;;8.57;2.72;;;7.60;99.90;;;;;;4426346;32;20061;-61
2023/12/10 12:00:57;;;;;;;2.60;1.58;;;7.60;99.90;;;;;;4427372;32;20110;-60
2023/12/10 12:03:22;;;;;;;1.83;0.60;;;7.60;99.90;;;;;;4431548;32;20548;-61
2023/12/10 12:05:52;;;;;;;0.70;0.57;;;7.70;99.90;;;;;;4429362;32;20143;-61
2023/12/10 12:08:19;;;;;;;0.28;0.28;;;7.60;99.90;;;;;;4428767;32;20076;-60
2023/12/10 12:10:44;;;;;;;0.30;0.30;;;7.70;99.90;;;;;;4427355;32;20057;-61
2023/12/10 12:13:10;;;;;;;9.68;0.60;;;7.70;99.90;;;;;;4429361;32;20477;-60
2023/12/10 12:15:35;;;;;;;0.32;0.32;;;7.70;99.90;;;;;;4432559;32;20069;-61
2023/12/10 12:18:02;;;;;;;0.45;0.45;;;7.60;99.90;;;;;;4431652;32;20077;-61
2023/12/10 12:20:29;;;;;;;1.75;1.35;;;7.60;99.90;;;;;;4421854;32;20525;-60
2023/12/10 12:22:54;;;;;;;0.50;0.50;;;7.60;99.90;;;;;;4419129;32;20069;-60
2023/12/10 12:25:21;;;;;;;2.83;1.17;;;7.60;99.90;;;;;;4432290;32;20565;-61
2023/12/10 12:27:47;;;;;;;0.65;0.65;;;7.60;99.90;;;;;;4418737;32;20065;-60
2023/12/10 12:30:18;;;;;;;0.40;0.40;;;7.70;99.90;;;;;;4434638;32;20077;-60
2023/12/10 12:32:43;;;;;;;0.40;0.40;;;7.60;99.90;;;;;;4432618;32;20563;-59
2023/12/10 12:35:09;;;;;;;1.55;0.77;;;7.70;99.90;;;;;;4429913;32;20256;-60
2023/12/10 12:37:36;;;;;;;2.22;0.82;;;7.70;99.90;;;;;;4430531;32;20078;-61
2023/12/10 12:40:02;;;;;;;5.72;2.47;;;7.70;99.90;;;;;;4419111;32;20789;-60
2023/12/10 12:42:27;;;;;;;1.33;1.10;;;7.70;99.90;;;;;;4431046;32;20076;-61
2023/12/10 12:44:53;;;;;;;1.08;0.98;;;7.70;99.90;;;;;;4428377;32;20559;-60
2023/12/10 12:47:19;;;;;;;0.80;0.80;;;7.70;99.90;;;;;;4428980;32;20065;-61
2023/12/10 12:49:44;;;;;;;19.02;1.00;;;7.60;99.90;;;;;;4417217;32;20061;-61